createdAt,value
2018-12-23T13:13:08.483Z,9.51
2018-12-23T13:15:39.815Z,9.51
2018-12-23T13:18:13.841Z,9.49
2018-12-23T13:20:43.951Z,9.57
2018-12-23T13:23:14.931Z,9.60
2018-12-23T13:25:44.985Z,9.53
2018-12-23T13:28:15.949Z,9.66
2018-12-23T13:30:46.905Z,9.55
2018-12-23T13:33:16.940Z,9.49
2018-12-23T13:35:48.224Z,9.48
2018-12-23T13:38:18.889Z,9.43
2018-12-23T13:40:58.155Z,9.48
2018-12-23T13:44:10.607Z,9.52
2018-12-23T13:47:54.841Z,9.52
2018-12-23T13:52:41.937Z,9.46
2018-12-23T13:55:31.718Z,9.46
2018-12-23T13:58:16.660Z,9.42
2018-12-23T14:01:00.368Z,9.38
2018-12-23T14:03:56.679Z,9.34
2018-12-23T14:07:15.806Z,9.35
2018-12-23T14:09:59.672Z,9.33
2018-12-23T14:12:31.250Z,9.30
2018-12-23T14:15:01.264Z,9.28
2018-12-23T14:17:35.972Z,9.25
2018-12-23T14:20:07.323Z,9.31
2018-12-23T14:22:39.047Z,9.27
2018-12-23T14:25:10.106Z,9.22
2018-12-23T14:27:40.217Z,9.24
2018-12-23T14:30:10.351Z,9.28
2018-12-23T14:32:42.181Z,9.20
2018-12-23T14:35:12.820Z,9.21
2018-12-23T14:37:43.275Z,9.19
2018-12-23T14:40:14.224Z,9.22
2018-12-23T14:42:44.967Z,9.15
2018-12-23T14:45:15.765Z,9.10
2018-12-23T14:47:46.272Z,9.07
2018-12-23T14:50:16.348Z,9.11
2018-12-23T14:52:48.051Z,9.08
2018-12-23T14:55:18.972Z,9.04
2018-12-23T14:57:49.364Z,9.01
2018-12-23T15:00:20.159Z,9.01
2018-12-23T15:02:50.488Z,8.99
2018-12-23T15:05:21.273Z,8.96
2018-12-23T15:07:51.832Z,8.92
2018-12-23T15:10:22.581Z,8.90
2018-12-23T15:12:53.114Z,8.88
2018-12-23T15:15:23.588Z,8.85
2018-12-23T15:17:54.523Z,8.83
2018-12-23T15:20:25.246Z,8.84
2018-12-23T15:22:55.575Z,8.83
2018-12-23T15:25:25.671Z,8.84
2018-12-23T15:27:56.812Z,8.84
2018-12-23T15:30:27.577Z,8.85
2018-12-23T15:32:58.409Z,8.86
2018-12-23T15:35:28.733Z,8.88
2018-12-23T15:37:59.064Z,8.88
2018-12-23T15:40:29.530Z,8.90
2018-12-23T15:43:00.458Z,8.89
2018-12-23T15:45:31.499Z,8.87
2018-12-23T15:48:02.388Z,8.86
2018-12-23T15:50:36.623Z,8.80
2018-12-23T15:53:07.796Z,8.76
2018-12-23T15:55:40.553Z,8.70
2018-12-23T15:58:11.644Z,8.64
2018-12-23T16:00:41.584Z,8.60
2018-12-23T16:03:12.779Z,8.57
2018-12-23T16:05:42.788Z,8.54
2018-12-23T16:08:14.578Z,8.50
2018-12-23T16:10:44.577Z,8.47
2018-12-23T16:13:15.639Z,8.45
2018-12-23T16:15:45.598Z,8.42
2018-12-23T16:18:16.581Z,8.39
2018-12-23T16:20:46.597Z,8.35
2018-12-23T16:23:16.858Z,8.32
2018-12-23T16:25:47.804Z,8.28
2018-12-23T16:28:19.105Z,8.27
2018-12-23T16:30:49.624Z,8.26
2018-12-23T16:33:19.814Z,8.28
2018-12-23T16:35:50.678Z,8.27
2018-12-23T16:38:24.549Z,8.30
2018-12-23T16:40:54.916Z,8.27
2018-12-23T16:43:26.703Z,8.27
2018-12-23T16:45:56.716Z,8.23
2018-12-23T16:48:27.200Z,8.21
2018-12-23T16:50:58.249Z,8.18
2018-12-23T16:53:28.925Z,8.15
2018-12-23T16:55:59.983Z,8.15
2018-12-23T16:58:31.699Z,8.15
2018-12-23T17:01:02.945Z,8.17
2018-12-23T17:03:37.755Z,8.15
2018-12-23T17:06:07.887Z,8.15
2018-12-23T17:08:39.912Z,8.14
2018-12-23T17:11:10.836Z,8.12
2018-12-23T17:13:40.819Z,8.09
2018-12-23T17:16:10.935Z,8.08
2018-12-23T17:18:41.904Z,8.11
2018-12-23T17:21:12.826Z,8.13
2018-12-23T17:23:43.247Z,8.14
2018-12-23T17:26:13.884Z,8.15
2018-12-23T17:28:44.121Z,8.17
2018-12-23T17:31:15.115Z,8.14
2018-12-23T17:33:45.732Z,8.13
2018-12-23T17:36:16.450Z,8.09
2018-12-23T17:38:47.035Z,8.27
2018-12-23T17:41:17.606Z,8.16
2018-12-23T17:43:48.173Z,8.24
2018-12-23T17:46:18.940Z,8.20
2018-12-23T17:48:49.019Z,8.21
2018-12-23T17:51:20.224Z,8.09
2018-12-23T17:53:51.285Z,8.09
2018-12-23T17:56:22.004Z,8.06
2018-12-23T17:58:53.376Z,8.02
2018-12-23T18:01:23.703Z,8.07
2018-12-23T18:04:02.044Z,8.03
2018-12-23T18:06:28.374Z,8.05
2018-12-23T18:09:01.449Z,7.90
2018-12-23T18:11:32.373Z,7.87
2018-12-23T18:14:03.601Z,7.77
2018-12-23T18:16:34.548Z,7.80
2018-12-23T18:19:04.564Z,7.86
2018-12-23T18:21:35.459Z,7.77
2018-12-23T18:24:05.595Z,7.69
2018-12-23T18:26:44.830Z,7.71
2018-12-23T18:29:08.899Z,7.70
2018-12-23T18:31:40.372Z,7.64
2018-12-23T18:34:11.277Z,7.74
2018-12-23T18:36:42.820Z,7.75
2018-12-23T18:39:14.376Z,7.70
2018-12-23T18:41:47.333Z,7.60
2018-12-23T18:44:17.563Z,7.60
2018-12-23T18:46:50.561Z,7.61
2018-12-23T18:49:21.467Z,7.59
2018-12-23T18:51:52.572Z,7.52
2018-12-23T18:54:22.888Z,7.57
2018-12-23T18:56:59.098Z,7.50
2018-12-23T18:59:32.729Z,7.49
2018-12-23T19:02:09.142Z,7.47
2018-12-23T19:04:40.457Z,7.42
2018-12-23T19:07:15.678Z,7.46
2018-12-23T19:10:23.004Z,7.36
2018-12-23T19:13:44.906Z,7.36
2018-12-23T19:16:28.118Z,7.41
2018-12-23T19:19:16.472Z,7.31
2018-12-23T19:21:57.963Z,7.29
2018-12-23T19:24:39.721Z,7.21
2018-12-23T19:27:54.664Z,7.16
2018-12-23T19:30:47.170Z,7.17
2018-12-23T19:35:41.159Z,7.17
2018-12-23T19:38:57.506Z,7.12
2018-12-23T19:43:47.411Z,7.08
2018-12-23T19:50:37.671Z,7.08
2018-12-23T19:54:20.313Z,7.01
2018-12-23T19:57:32.304Z,6.97
2018-12-23T20:00:27.966Z,6.97
2018-12-23T20:05:12.751Z,6.94
2018-12-23T20:08:26.063Z,6.94
2018-12-23T20:13:27.663Z,6.94
2018-12-23T20:16:07.867Z,6.91
2018-12-23T20:21:03.536Z,6.90
2018-12-23T20:24:29.133Z,6.89
2018-12-23T20:27:10.003Z,6.89
2018-12-23T20:30:27.376Z,6.87
2018-12-23T20:35:16.046Z,6.86
2018-12-23T20:38:32.617Z,6.87
2018-12-23T20:41:24.610Z,6.87
2018-12-23T20:44:13.260Z,6.86
2018-12-23T20:46:58.857Z,6.85
2018-12-23T20:51:48.687Z,6.83
2018-12-23T20:54:34.900Z,6.81
2018-12-23T20:59:15.650Z,6.79
2018-12-23T21:02:02.899Z,6.76
2018-12-23T21:04:59.605Z,6.72
2018-12-23T21:09:48.432Z,6.71
2018-12-23T21:12:39.961Z,6.71
2018-12-23T21:15:38.819Z,6.71
2018-12-23T21:20:25.716Z,6.71
2018-12-23T21:25:11.327Z,6.69
2018-12-23T21:27:59.171Z,6.65
2018-12-23T21:30:48.289Z,6.67
2018-12-23T21:33:30.393Z,6.67
2018-12-23T21:36:10.969Z,6.68
2018-12-23T21:38:55.272Z,6.66
2018-12-23T21:41:36.931Z,6.65
2018-12-23T21:44:22.197Z,6.65
2018-12-23T21:47:02.093Z,6.63
2018-12-23T21:49:51.719Z,6.63
2018-12-23T21:52:39.697Z,6.64
2018-12-23T21:55:16.547Z,6.65
2018-12-23T21:58:04.108Z,6.65
2018-12-23T22:01:20.335Z,6.66
2018-12-23T22:06:11.161Z,6.66
2018-12-23T22:09:20.802Z,6.65
2018-12-23T22:12:18.010Z,6.64
2018-12-23T22:14:49.119Z,6.66
2018-12-23T22:17:20.179Z,6.65
2018-12-23T22:19:50.379Z,6.65
2018-12-23T22:22:21.376Z,6.66
2018-12-23T22:24:52.480Z,6.65
2018-12-23T22:27:22.586Z,6.65
2018-12-23T22:29:59.039Z,6.67
2018-12-23T22:32:30.198Z,6.67
2018-12-23T22:35:00.284Z,6.68
2018-12-23T22:37:32.481Z,6.68
2018-12-23T22:40:05.530Z,6.70
2018-12-23T22:42:36.120Z,6.69
2018-12-23T22:45:07.084Z,6.71
2018-12-23T22:47:37.580Z,6.69
2018-12-23T22:50:08.551Z,6.68
2018-12-23T22:52:39.273Z,6.69
2018-12-23T22:55:13.273Z,6.68
2018-12-23T22:57:43.415Z,6.65
2018-12-23T23:00:17.268Z,6.64
2018-12-23T23:02:50.454Z,6.65
2018-12-23T23:05:21.570Z,6.65
2018-12-23T23:07:52.664Z,6.66
2018-12-23T23:10:25.859Z,6.65
2018-12-23T23:12:56.768Z,6.63
2018-12-23T23:15:29.461Z,6.64
2018-12-23T23:17:59.468Z,6.64
2018-12-23T23:20:31.468Z,6.60
2018-12-23T23:23:04.854Z,6.56
2018-12-23T23:25:37.514Z,6.57
2018-12-23T23:28:08.897Z,6.58
2018-12-23T23:30:41.669Z,6.61
2018-12-23T23:33:14.961Z,6.61
2018-12-23T23:35:46.775Z,6.62
2018-12-23T23:38:22.593Z,6.60
2018-12-23T23:40:54.930Z,6.59
2018-12-23T23:43:27.946Z,6.58
2018-12-23T23:45:58.822Z,6.60
2018-12-23T23:48:29.059Z,6.59
2018-12-23T23:51:02.869Z,6.60
2018-12-23T23:53:34.113Z,6.58
2018-12-23T23:56:04.972Z,6.56
2018-12-23T23:58:36.757Z,6.53
